Flight Track Log - Related Links

Times and Time Zones

All times are in EDT time to prevent confusion due to time zone crossing. See the SKW5370 flight status page for this flight to view local times or setup timezone preferences in your user account.

Time Position Orientation Groundspeed Altitude Reporting Facility
EDT Latitude Longitude Course Direction KTS MPH feet Rate Location/Type
Sun 09:09:58 AM 42.1814 -121.7472 338° Northwest 163 188 5,300  Level Seattle Center
Sun 09:10:58 AM 42.2397 -121.7783 338° Northwest 184 212 7,600 2,000 Climbing Seattle Center
Sun 09:11:58 AM 42.2922 -121.8089 337° Northwest 196 226 9,300 1,686 Climbing Seattle Center
Sun 09:12:59 AM 42.3458 -121.8383 338° Northwest 204 235 11,000 1,736 Climbing Seattle Center
Sun 09:13:00 AM 42.4031 -121.8446 344° North  Level FlightAware Approximate
Sun 09:13:59 AM 42.4003 -121.8658 340° North 207 238 12,800  Level Seattle Center
Sun 09:14:00 AM 42.4662 -121.8775 338° Northwest  Level FlightAware Approximate
Sun 09:14:59 AM 42.4553 -121.8914 341° North 210 242 14,400  Level Seattle Center
Sun 09:15:00 AM 42.5288 -121.9123 338° Northwest  Level FlightAware Approximate
Sun 09:16:00 AM 42.5069 -121.9181 339° North 200 230 16,000  Level Seattle Center
Sun 09:17:00 AM 42.5628 -121.9453 340° North 213 245 17,300 1,150 Climbing Seattle Center
Sun 09:18:00 AM 42.6169 -121.9714 340° North 207 238 18,300 1,140 Climbing Seattle Center
Sun 09:19:01 AM 42.6694 -121.9972 340° North 203 234 19,600 1,240 Climbing Seattle Center
Sun 09:20:01 AM 42.7172 -122.0214 340° North 189 217 20,800 1,050 Climbing Seattle Center
Sun 09:21:01 AM 42.7633 -122.0461 339° North 181 208 21,700 595 Climbing Seattle Center
Sun 09:22:02 AM 42.8139 -122.0700 341° North 189 217 22,000 99 Climbing Seattle Center
Sun 09:23:02 AM 42.8675 -122.0981 339° North 203 234 21,900 -50 Descending Seattle Center
Sun 09:24:03 AM 42.9228 -122.1256 340° North 209 241 21,900  Level Seattle Center
Sun 09:25:03 AM 42.9789 -122.1550 339° North 215 247 21,900  Level Seattle Center
Sun 09:26:03 AM 43.0347 -122.1831 340° North 215 247 21,900 50 Level Seattle Center
Sun 09:27:04 AM 43.0947 -122.2003 348° North 218 251 22,000 50 Climbing Seattle Center
Sun 09:28:04 AM 43.1550 -122.2125 352° North 219 252 22,000 -50 Level Seattle Center
Sun 09:29:05 AM 43.2156 -122.2247 352° North 222 255 21,900  Descending Seattle Center
Sun 09:30:05 AM 43.2781 -122.2389 351° North 226 260 22,000  Climbing Seattle Center
Sun 09:31:06 AM 43.3372 -122.2567 348° North 220 253 21,900  Descending Seattle Center
Sun 09:32:06 AM 43.3989 -122.2711 350° North 223 257 22,000 50 Climbing Seattle Center
Sun 09:33:06 AM 43.4606 -122.2839 351° North 224 258 22,000  Level Seattle Center
Sun 09:34:07 AM 43.5219 -122.3025 348° North 225 259 22,000 -50 Level Seattle Center
Sun 09:35:07 AM 43.5831 -122.3158 351° North 223 257 21,900  Descending Seattle Center
Sun 09:36:08 AM 43.6453 -122.3311 350° North 225 259 22,000 -347 Climbing Seattle Center
Sun 09:37:08 AM 43.7089 -122.3483 349° North 232 267 21,200 -942 Descending Seattle Center
Sun 09:38:09 AM 43.7958 -122.3686 350° North 261 300 20,100 -595 Descending Seattle Center
Sun 09:39:09 AM 43.8681 -122.3883 349° North 265 305 20,000 -50 Descending Seattle Center
Sun 09:40:10 AM 43.9383 -122.4056 350° North 257 296 20,000  Level Seattle Center
Sun 09:41:10 AM 44.0075 -122.4239 349° North 253 291 20,000 -446 Level Seattle Center
Sun 09:42:11 AM 44.0761 -122.4425 349° North 252 290 19,100 -942 Descending Seattle Center
Sun 09:43:11 AM 44.1522 -122.4628 349° North 275 316 18,100 -694 Descending Seattle Center
Sun 09:44:12 AM 44.2289 -122.4811 350° North 280 322 17,700 -645 Descending Seattle Center
Sun 09:45:12 AM 44.3044 -122.5003 350° North 278 320 16,800 -843 Descending Seattle Center
Sun 09:46:13 AM 44.3808 -122.5194 350° North 279 321 16,000 -843 Descending Seattle Center
Sun 09:47:13 AM 44.4558 -122.5400 349° North 277 319 15,100 -843 Descending Seattle Center
Sun 09:48:14 AM 44.5306 -122.5581 350° North 274 315 14,300 -793 Descending Seattle Center
Sun 09:49:14 AM 44.6053 -122.5775 350° North 273 314 13,500 -800 Descending Seattle Center
Sun 09:50:14 AM 44.6786 -122.5981 349° North 271 312 12,700 -843 Descending Seattle Center
Sun 09:51:15 AM 44.7542 -122.6183 349° North 274 315 11,800 -843 Descending Seattle Center
Sun 09:52:15 AM 44.8283 -122.5969 12° North 279 321 11,000 -843 Descending Seattle Center
Sun 09:53:16 AM 44.9103 -122.5658 15° North 281 323 10,100 -694 Descending Seattle Center
Sun 09:54:16 AM 44.9844 -122.5342 17° North 281 323 9,600 -694 Descending Seattle Center
Sun 09:55:17 AM 45.0592 -122.5017 17° North 282 325 8,700 -992 Descending Seattle Center
Sun 09:56:17 AM 45.1356 -122.4686 17° North 286 329 7,600 -1,190 Descending Seattle Center
Sun 09:57:18 AM 45.2114 -122.4317 19° North 288 331 6,300 -1,190 Descending Seattle Center
Sun 09:58:18 AM 45.2892 -122.4261 North 286 329 5,200 -1,091 Descending Seattle Center
Sun 09:59:19 AM 45.3672 -122.4375 354° North 284 327 4,100 -1,289 Descending Seattle Center
Sun 10:00:19 AM 45.4414 -122.4347 North 280 322 2,600 -893 Descending Seattle Center
Sun 10:01:20 AM 45.5047 -122.4303 North 248 285 2,300 -586 Descending Seattle Center
Sun 10:02:32 AM 45.5561 -122.4961 318° Northwest 160 184 1,300 -857 Descending Seattle Center
Sun 10:03:33 AM 45.5739 -122.5411 299° West 121 139 400 -440 Descending Seattle Center
Sun 10:04:21 AM 45.5889 -122.5781 300° West 171 197 500 125 Climbing Seattle Center

Login

Don't have an account? Register now (free) for customized features, flight alerts, and more!